sensor_id;sensor_type;location;lat;lon;timestamp;P1;durP1;ratioP1;P2;durP2;ratioP2
21337;SDS011;72379;50.880;4.350;2024-02-21T00:01:03;32.83;;;9.50;;
21337;SDS011;72379;50.880;4.350;2024-02-21T00:03:29;27.53;;;9.30;;
21337;SDS011;72379;50.880;4.350;2024-02-21T00:05:55;22.97;;;8.60;;
21337;SDS011;72379;50.880;4.350;2024-02-21T00:08:21;30.53;;;8.90;;
21337;SDS011;72379;50.880;4.350;2024-02-21T00:10:47;18.70;;;8.20;;
21337;SDS011;72379;50.880;4.350;2024-02-21T00:13:13;27.70;;;8.90;;
21337;SDS011;72379;50.880;4.350;2024-02-21T00:15:39;20.17;;;6.17;;
21337;SDS011;72379;50.880;4.350;2024-02-21T00:18:05;24.60;;;8.27;;
21337;SDS011;72379;50.880;4.350;2024-02-21T00:20:31;23.90;;;7.57;;
21337;SDS011;72379;50.880;4.350;2024-02-21T00:22:57;22.43;;;7.37;;
21337;SDS011;72379;50.880;4.350;2024-02-21T00:25:23;29.13;;;8.43;;
21337;SDS011;72379;50.880;4.350;2024-02-21T00:27:49;27.90;;;8.87;;
21337;SDS011;72379;50.880;4.350;2024-02-21T00:30:15;29.23;;;8.93;;
21337;SDS011;72379;50.880;4.350;2024-02-21T00:32:41;23.40;;;7.83;;
21337;SDS011;72379;50.880;4.350;2024-02-21T00:35:07;28.43;;;9.50;;
21337;SDS011;72379;50.880;4.350;2024-02-21T00:37:33;23.43;;;9.27;;
21337;SDS011;72379;50.880;4.350;2024-02-21T00:39:59;24.73;;;8.10;;
21337;SDS011;72379;50.880;4.350;2024-02-21T00:42:25;32.43;;;9.87;;
21337;SDS011;72379;50.880;4.350;2024-02-21T00:44:51;29.80;;;8.87;;
21337;SDS011;72379;50.880;4.350;2024-02-21T00:47:17;27.03;;;8.60;;
21337;SDS011;72379;50.880;4.350;2024-02-21T00:49:43;22.93;;;8.33;;
21337;SDS011;72379;50.880;4.350;2024-02-21T00:52:09;24.37;;;9.00;;
21337;SDS011;72379;50.880;4.350;2024-02-21T00:54:35;18.30;;;8.97;;
21337;SDS011;72379;50.880;4.350;2024-02-21T00:57:01;23.60;;;7.30;;
21337;SDS011;72379;50.880;4.350;2024-02-21T00:59:27;23.60;;;8.70;;
21337;SDS011;72379;50.880;4.350;2024-02-21T01:01:53;27.73;;;8.20;;
21337;SDS011;72379;50.880;4.350;2024-02-21T01:04:19;22.67;;;8.40;;
21337;SDS011;72379;50.880;4.350;2024-02-21T01:06:45;22.17;;;7.97;;
21337;SDS011;72379;50.880;4.350;2024-02-21T01:09:11;19.53;;;8.37;;
21337;SDS011;72379;50.880;4.350;2024-02-21T01:11:37;23.03;;;7.37;;
21337;SDS011;72379;50.880;4.350;2024-02-21T01:14:03;23.77;;;7.60;;
21337;SDS011;72379;50.880;4.350;2024-02-21T01:16:30;23.83;;;8.30;;
21337;SDS011;72379;50.880;4.350;2024-02-21T01:18:56;20.80;;;7.77;;
21337;SDS011;72379;50.880;4.350;2024-02-21T01:21:22;23.10;;;7.13;;
21337;SDS011;72379;50.880;4.350;2024-02-21T01:23:48;21.43;;;8.33;;
21337;SDS011;72379;50.880;4.350;2024-02-21T01:26:14;20.37;;;7.17;;
21337;SDS011;72379;50.880;4.350;2024-02-21T01:28:40;21.60;;;8.27;;
21337;SDS011;72379;50.880;4.350;2024-02-21T01:31:06;20.37;;;7.53;;
21337;SDS011;72379;50.880;4.350;2024-02-21T01:33:33;20.70;;;7.37;;
21337;SDS011;72379;50.880;4.350;2024-02-21T01:36:03;20.20;;;7.80;;
21337;SDS011;72379;50.880;4.350;2024-02-21T01:38:31;27.90;;;8.10;;
21337;SDS011;72379;50.880;4.350;2024-02-21T01:40:57;21.63;;;8.77;;
21337;SDS011;72379;50.880;4.350;2024-02-21T01:43:23;16.97;;;6.30;;
21337;SDS011;72379;50.880;4.350;2024-02-21T01:45:50;25.23;;;7.50;;
21337;SDS011;72379;50.880;4.350;2024-02-21T01:48:21;25.90;;;8.43;;
21337;SDS011;72379;50.880;4.350;2024-02-21T01:50:48;26.50;;;9.20;;
21337;SDS011;72379;50.880;4.350;2024-02-21T01:53:15;25.17;;;8.87;;
21337;SDS011;72379;50.880;4.350;2024-02-21T01:55:47;26.53;;;9.87;;
21337;SDS011;72379;50.880;4.350;2024-02-21T01:58:16;22.73;;;10.30;;
21337;SDS011;72379;50.880;4.350;2024-02-21T02:00:43;28.33;;;9.57;;
21337;SDS011;72379;50.880;4.350;2024-02-21T02:03:11;28.07;;;10.43;;
21337;SDS011;72379;50.880;4.350;2024-02-21T02:05:43;33.80;;;9.60;;
21337;SDS011;72379;50.880;4.350;2024-02-21T02:08:14;28.30;;;10.53;;
21337;SDS011;72379;50.880;4.350;2024-02-21T02:10:43;23.93;;;9.77;;
21337;SDS011;72379;50.880;4.350;2024-02-21T02:13:10;23.77;;;9.97;;
21337;SDS011;72379;50.880;4.350;2024-02-21T02:15:39;24.53;;;10.70;;
21337;SDS011;72379;50.880;4.350;2024-02-21T02:18:06;32.40;;;10.93;;
21337;SDS011;72379;50.880;4.350;2024-02-21T02:20:32;30.67;;;10.03;;
21337;SDS011;72379;50.880;4.350;2024-02-21T02:22:59;33.47;;;10.90;;
21337;SDS011;72379;50.880;4.350;2024-02-21T02:25:25;29.23;;;10.77;;
21337;SDS011;72379;50.880;4.350;2024-02-21T02:27:51;25.27;;;8.33;;
21337;SDS011;72379;50.880;4.350;2024-02-21T02:30:18;24.20;;;9.07;;
21337;SDS011;72379;50.880;4.350;2024-02-21T02:32:45;27.00;;;10.70;;
21337;SDS011;72379;50.880;4.350;2024-02-21T02:35:11;19.83;;;9.30;;
21337;SDS011;72379;50.880;4.350;2024-02-21T02:37:37;20.57;;;9.60;;
21337;SDS011;72379;50.880;4.350;2024-02-21T02:40:06;22.30;;;10.57;;
21337;SDS011;72379;50.880;4.350;2024-02-21T02:42:32;29.30;;;10.03;;
21337;SDS011;72379;50.880;4.350;2024-02-21T02:44:58;28.20;;;9.60;;
21337;SDS011;72379;50.880;4.350;2024-02-21T02:47:25;24.37;;;9.93;;
21337;SDS011;72379;50.880;4.350;2024-02-21T02:49:51;27.00;;;9.87;;
21337;SDS011;72379;50.880;4.350;2024-02-21T02:52:17;29.97;;;10.27;;
21337;SDS011;72379;50.880;4.350;2024-02-21T02:54:43;28.40;;;9.80;;
21337;SDS011;72379;50.880;4.350;2024-02-21T02:57:09;34.23;;;10.90;;
21337;SDS011;72379;50.880;4.350;2024-02-21T02:59:35;36.47;;;10.70;;
21337;SDS011;72379;50.880;4.350;2024-02-21T03:02:01;23.27;;;9.97;;
21337;SDS011;72379;50.880;4.350;2024-02-21T03:04:27;26.20;;;9.73;;
21337;SDS011;72379;50.880;4.350;2024-02-21T03:06:53;24.30;;;9.50;;
21337;SDS011;72379;50.880;4.350;2024-02-21T03:09:19;27.60;;;10.07;;
21337;SDS011;72379;50.880;4.350;2024-02-21T03:11:45;23.70;;;10.30;;
21337;SDS011;72379;50.880;4.350;2024-02-21T03:14:11;25.97;;;10.50;;
21337;SDS011;72379;50.880;4.350;2024-02-21T03:16:37;27.67;;;10.50;;
21337;SDS011;72379;50.880;4.350;2024-02-21T03:19:03;23.37;;;9.80;;
21337;SDS011;72379;50.880;4.350;2024-02-21T03:21:29;26.67;;;9.10;;
21337;SDS011;72379;50.880;4.350;2024-02-21T03:23:55;30.60;;;9.97;;
21337;SDS011;72379;50.880;4.350;2024-02-21T03:26:21;31.40;;;10.50;;
21337;SDS011;72379;50.880;4.350;2024-02-21T03:28:47;28.67;;;10.87;;
21337;SDS011;72379;50.880;4.350;2024-02-21T03:31:13;24.80;;;9.67;;
21337;SDS011;72379;50.880;4.350;2024-02-21T03:33:40;33.03;;;10.47;;
21337;SDS011;72379;50.880;4.350;2024-02-21T03:36:12;27.90;;;10.37;;
21337;SDS011;72379;50.880;4.350;2024-02-21T03:38:38;28.93;;;10.17;;
21337;SDS011;72379;50.880;4.350;2024-02-21T03:41:05;22.40;;;9.27;;
21337;SDS011;72379;50.880;4.350;2024-02-21T03:43:31;28.40;;;10.10;;
21337;SDS011;72379;50.880;4.350;2024-02-21T03:45:56;23.10;;;9.83;;
21337;SDS011;72379;50.880;4.350;2024-02-21T03:48:22;20.93;;;10.37;;
21337;SDS011;72379;50.880;4.350;2024-02-21T03:50:48;27.63;;;10.90;;
21337;SDS011;72379;50.880;4.350;2024-02-21T03:53:14;23.73;;;9.07;;
21337;SDS011;72379;50.880;4.350;2024-02-21T03:55:40;26.77;;;10.57;;
21337;SDS011;72379;50.880;4.350;2024-02-21T03:58:05;32.47;;;10.63;;
21337;SDS011;72379;50.880;4.350;2024-02-21T04:00:31;26.10;;;10.63;;
21337;SDS011;72379;50.880;4.350;2024-02-21T04:02:57;25.43;;;10.23;;
21337;SDS011;72379;50.880;4.350;2024-02-21T04:05:23;31.37;;;11.17;;
21337;SDS011;72379;50.880;4.350;2024-02-21T04:07:50;31.97;;;11.00;;
21337;SDS011;72379;50.880;4.350;2024-02-21T04:10:16;27.50;;;10.63;;
21337;SDS011;72379;50.880;4.350;2024-02-21T04:12:43;27.23;;;10.43;;
21337;SDS011;72379;50.880;4.350;2024-02-21T04:15:08;26.23;;;10.53;;
21337;SDS011;72379;50.880;4.350;2024-02-21T04:17:34;27.47;;;10.13;;
21337;SDS011;72379;50.880;4.350;2024-02-21T04:20:04;24.07;;;9.87;;
21337;SDS011;72379;50.880;4.350;2024-02-21T04:22:31;29.93;;;10.87;;
21337;SDS011;72379;50.880;4.350;2024-02-21T04:24:59;29.37;;;9.80;;
21337;SDS011;72379;50.880;4.350;2024-02-21T04:27:25;25.00;;;9.30;;
21337;SDS011;72379;50.880;4.350;2024-02-21T04:29:51;28.17;;;9.80;;
21337;SDS011;72379;50.880;4.350;2024-02-21T04:32:18;21.43;;;9.70;;
21337;SDS011;72379;50.880;4.350;2024-02-21T04:34:44;29.23;;;10.47;;
21337;SDS011;72379;50.880;4.350;2024-02-21T04:37:10;25.90;;;9.47;;
21337;SDS011;72379;50.880;4.350;2024-02-21T04:39:36;29.83;;;10.40;;
21337;SDS011;72379;50.880;4.350;2024-02-21T04:42:02;28.80;;;10.23;;
21337;SDS011;72379;50.880;4.350;2024-02-21T04:44:28;22.50;;;8.97;;
21337;SDS011;72379;50.880;4.350;2024-02-21T04:46:54;19.60;;;9.60;;
21337;SDS011;72379;50.880;4.350;2024-02-21T04:49:20;28.60;;;9.33;;
21337;SDS011;72379;50.880;4.350;2024-02-21T04:51:46;24.23;;;9.97;;
21337;SDS011;72379;50.880;4.350;2024-02-21T04:54:12;25.57;;;9.50;;
21337;SDS011;72379;50.880;4.350;2024-02-21T04:56:38;27.47;;;10.73;;
21337;SDS011;72379;50.880;4.350;2024-02-21T04:59:04;23.57;;;9.50;;
21337;SDS011;72379;50.880;4.350;2024-02-21T05:01:30;29.03;;;10.33;;
21337;SDS011;72379;50.880;4.350;2024-02-21T05:03:56;23.03;;;10.03;;
21337;SDS011;72379;50.880;4.350;2024-02-21T05:06:22;30.40;;;10.17;;
21337;SDS011;72379;50.880;4.350;2024-02-21T05:08:48;29.60;;;10.20;;
21337;SDS011;72379;50.880;4.350;2024-02-21T05:11:15;26.53;;;9.90;;
21337;SDS011;72379;50.880;4.350;2024-02-21T05:13:41;23.63;;;8.07;;
21337;SDS011;72379;50.880;4.350;2024-02-21T05:16:07;21.07;;;9.13;;
21337;SDS011;72379;50.880;4.350;2024-02-21T05:18:33;24.63;;;9.10;;
21337;SDS011;72379;50.880;4.350;2024-02-21T05:20:59;26.50;;;10.07;;
21337;SDS011;72379;50.880;4.350;2024-02-21T05:23:26;19.17;;;7.53;;
21337;SDS011;72379;50.880;4.350;2024-02-21T05:25:51;26.37;;;9.40;;
21337;SDS011;72379;50.880;4.350;2024-02-21T05:28:17;20.10;;;9.37;;
21337;SDS011;72379;50.880;4.350;2024-02-21T05:30:43;22.67;;;9.23;;
21337;SDS011;72379;50.880;4.350;2024-02-21T05:33:09;19.10;;;9.60;;
21337;SDS011;72379;50.880;4.350;2024-02-21T05:35:35;21.40;;;8.53;;
21337;SDS011;72379;50.880;4.350;2024-02-21T05:38:01;20.63;;;9.07;;
21337;SDS011;72379;50.880;4.350;2024-02-21T05:40:31;25.43;;;9.83;;
21337;SDS011;72379;50.880;4.350;2024-02-21T05:42:57;21.70;;;8.90;;
21337;SDS011;72379;50.880;4.350;2024-02-21T05:45:23;22.17;;;8.60;;
21337;SDS011;72379;50.880;4.350;2024-02-21T05:47:49;26.30;;;10.30;;
21337;SDS011;72379;50.880;4.350;2024-02-21T05:50:15;20.20;;;8.10;;
21337;SDS011;72379;50.880;4.350;2024-02-21T05:52:42;21.53;;;8.00;;
21337;SDS011;72379;50.880;4.350;2024-02-21T05:55:08;20.37;;;8.87;;
21337;SDS011;72379;50.880;4.350;2024-02-21T05:57:34;20.07;;;8.03;;
21337;SDS011;72379;50.880;4.350;2024-02-21T06:00:00;20.87;;;8.10;;
21337;SDS011;72379;50.880;4.350;2024-02-21T06:02:26;18.03;;;8.53;;
21337;SDS011;72379;50.880;4.350;2024-02-21T06:04:52;23.60;;;8.80;;
21337;SDS011;72379;50.880;4.350;2024-02-21T06:07:18;16.20;;;7.90;;
21337;SDS011;72379;50.880;4.350;2024-02-21T06:09:44;19.87;;;8.03;;
21337;SDS011;72379;50.880;4.350;2024-02-21T06:12:09;15.87;;;7.00;;
21337;SDS011;72379;50.880;4.350;2024-02-21T06:14:35;19.90;;;8.23;;
21337;SDS011;72379;50.880;4.350;2024-02-21T06:17:02;17.60;;;7.30;;
21337;SDS011;72379;50.880;4.350;2024-02-21T06:19:28;19.20;;;8.33;;
21337;SDS011;72379;50.880;4.350;2024-02-21T06:21:54;19.43;;;7.40;;
21337;SDS011;72379;50.880;4.350;2024-02-21T06:24:20;20.67;;;7.70;;
21337;SDS011;72379;50.880;4.350;2024-02-21T06:26:46;12.27;;;6.87;;
21337;SDS011;72379;50.880;4.350;2024-02-21T06:29:12;18.80;;;7.10;;
21337;SDS011;72379;50.880;4.350;2024-02-21T06:31:38;19.27;;;6.97;;
21337;SDS011;72379;50.880;4.350;2024-02-21T06:34:05;20.13;;;7.33;;
21337;SDS011;72379;50.880;4.350;2024-02-21T06:36:30;18.17;;;7.73;;
21337;SDS011;72379;50.880;4.350;2024-02-21T06:38:56;18.23;;;6.77;;
21337;SDS011;72379;50.880;4.350;2024-02-21T06:41:22;14.87;;;8.20;;
21337;SDS011;72379;50.880;4.350;2024-02-21T06:43:48;19.53;;;7.90;;
21337;SDS011;72379;50.880;4.350;2024-02-21T06:46:23;21.03;;;8.73;;
21337;SDS011;72379;50.880;4.350;2024-02-21T06:48:50;18.40;;;8.73;;
21337;SDS011;72379;50.880;4.350;2024-02-21T06:51:16;16.73;;;8.70;;
21337;SDS011;72379;50.880;4.350;2024-02-21T06:53:42;20.10;;;9.20;;
21337;SDS011;72379;50.880;4.350;2024-02-21T06:56:10;19.53;;;8.43;;
21337;SDS011;72379;50.880;4.350;2024-02-21T06:58:35;20.93;;;9.30;;
21337;SDS011;72379;50.880;4.350;2024-02-21T07:01:02;26.23;;;11.20;;
21337;SDS011;72379;50.880;4.350;2024-02-21T07:03:28;14.30;;;7.20;;
21337;SDS011;72379;50.880;4.350;2024-02-21T07:05:54;22.90;;;10.43;;
21337;SDS011;72379;50.880;4.350;2024-02-21T07:08:20;18.23;;;8.73;;
21337;SDS011;72379;50.880;4.350;2024-02-21T07:10:47;23.23;;;11.90;;
21337;SDS011;72379;50.880;4.350;2024-02-21T07:13:13;23.40;;;10.30;;
21337;SDS011;72379;50.880;4.350;2024-02-21T07:15:41;21.13;;;10.63;;
21337;SDS011;72379;50.880;4.350;2024-02-21T07:18:07;29.80;;;13.47;;
21337;SDS011;72379;50.880;4.350;2024-02-21T07:20:33;28.00;;;13.03;;
21337;SDS011;72379;50.880;4.350;2024-02-21T07:22:59;25.60;;;12.47;;
21337;SDS011;72379;50.880;4.350;2024-02-21T07:25:26;33.50;;;14.80;;
21337;SDS011;72379;50.880;4.350;2024-02-21T07:27:51;27.10;;;13.40;;
21337;SDS011;72379;50.880;4.350;2024-02-21T07:30:19;26.03;;;10.80;;
21337;SDS011;72379;50.880;4.350;2024-02-21T07:32:45;26.73;;;13.37;;
21337;SDS011;72379;50.880;4.350;2024-02-21T07:35:11;28.43;;;13.53;;
21337;SDS011;72379;50.880;4.350;2024-02-21T07:37:37;27.23;;;13.20;;
21337;SDS011;72379;50.880;4.350;2024-02-21T07:40:11;23.20;;;12.50;;
21337;SDS011;72379;50.880;4.350;2024-02-21T07:42:41;25.37;;;12.43;;
21337;SDS011;72379;50.880;4.350;2024-02-21T07:45:08;28.37;;;11.50;;
21337;SDS011;72379;50.880;4.350;2024-02-21T07:47:35;26.60;;;12.23;;
21337;SDS011;72379;50.880;4.350;2024-02-21T07:50:04;27.30;;;12.17;;
21337;SDS011;72379;50.880;4.350;2024-02-21T07:52:31;29.50;;;11.50;;
21337;SDS011;72379;50.880;4.350;2024-02-21T07:54:57;23.50;;;11.10;;
21337;SDS011;72379;50.880;4.350;2024-02-21T07:57:26;20.07;;;10.90;;
21337;SDS011;72379;50.880;4.350;2024-02-21T07:59:53;21.53;;;9.77;;
21337;SDS011;72379;50.880;4.350;2024-02-21T08:02:19;20.57;;;10.60;;
21337;SDS011;72379;50.880;4.350;2024-02-21T08:04:45;20.30;;;8.87;;
21337;SDS011;72379;50.880;4.350;2024-02-21T08:07:17;19.33;;;8.90;;
21337;SDS011;72379;50.880;4.350;2024-02-21T08:09:43;17.13;;;8.83;;
21337;SDS011;72379;50.880;4.350;2024-02-21T08:12:09;21.70;;;8.87;;
21337;SDS011;72379;50.880;4.350;2024-02-21T08:14:34;24.90;;;8.40;;
21337;SDS011;72379;50.880;4.350;2024-02-21T08:17:05;16.63;;;7.00;;
21337;SDS011;72379;50.880;4.350;2024-02-21T08:19:31;15.17;;;6.77;;
21337;SDS011;72379;50.880;4.350;2024-02-21T08:21:57;15.93;;;7.60;;
21337;SDS011;72379;50.880;4.350;2024-02-21T08:24:23;14.00;;;7.07;;
21337;SDS011;72379;50.880;4.350;2024-02-21T08:26:48;19.03;;;6.70;;
21337;SDS011;72379;50.880;4.350;2024-02-21T08:29:15;18.43;;;6.60;;
21337;SDS011;72379;50.880;4.350;2024-02-21T08:31:41;13.93;;;6.40;;
21337;SDS011;72379;50.880;4.350;2024-02-21T08:34:07;14.83;;;6.53;;
21337;SDS011;72379;50.880;4.350;2024-02-21T08:36:34;15.00;;;6.10;;
21337;SDS011;72379;50.880;4.350;2024-02-21T08:39:00;15.13;;;7.20;;
21337;SDS011;72379;50.880;4.350;2024-02-21T08:41:32;13.57;;;5.67;;
21337;SDS011;72379;50.880;4.350;2024-02-21T08:43:58;14.43;;;5.87;;
21337;SDS011;72379;50.880;4.350;2024-02-21T08:46:25;12.13;;;6.13;;
21337;SDS011;72379;50.880;4.350;2024-02-21T08:48:51;14.37;;;5.60;;
21337;SDS011;72379;50.880;4.350;2024-02-21T08:51:18;11.97;;;5.47;;
21337;SDS011;72379;50.880;4.350;2024-02-21T08:53:44;16.67;;;5.97;;
21337;SDS011;72379;50.880;4.350;2024-02-21T08:56:10;16.77;;;4.83;;
21337;SDS011;72379;50.880;4.350;2024-02-21T08:58:37;12.03;;;5.60;;
21337;SDS011;72379;50.880;4.350;2024-02-21T09:01:04;14.67;;;5.17;;
21337;SDS011;72379;50.880;4.350;2024-02-21T09:03:41;15.97;;;5.47;;
21337;SDS011;72379;50.880;4.350;2024-02-21T09:06:09;15.17;;;5.67;;
21337;SDS011;72379;50.880;4.350;2024-02-21T09:08:35;11.50;;;4.97;;
21337;SDS011;72379;50.880;4.350;2024-02-21T09:11:01;10.20;;;4.93;;
21337;SDS011;72379;50.880;4.350;2024-02-21T09:13:28;11.00;;;4.93;;
21337;SDS011;72379;50.880;4.350;2024-02-21T09:15:55;9.63;;;4.73;;
21337;SDS011;72379;50.880;4.350;2024-02-21T09:18:21;11.23;;;5.30;;
21337;SDS011;72379;50.880;4.350;2024-02-21T09:20:47;11.73;;;4.80;;
21337;SDS011;72379;50.880;4.350;2024-02-21T09:23:13;12.93;;;4.80;;
21337;SDS011;72379;50.880;4.350;2024-02-21T09:25:40;10.40;;;5.23;;
21337;SDS011;72379;50.880;4.350;2024-02-21T09:28:09;8.53;;;3.60;;
21337;SDS011;72379;50.880;4.350;2024-02-21T09:30:35;11.80;;;5.10;;
21337;SDS011;72379;50.880;4.350;2024-02-21T09:33:03;9.93;;;4.63;;
21337;SDS011;72379;50.880;4.350;2024-02-21T09:35:30;11.57;;;4.90;;
21337;SDS011;72379;50.880;4.350;2024-02-21T09:37:56;12.67;;;4.83;;
21337;SDS011;72379;50.880;4.350;2024-02-21T09:40:22;12.43;;;4.47;;
21337;SDS011;72379;50.880;4.350;2024-02-21T09:42:48;10.73;;;4.77;;
21337;SDS011;72379;50.880;4.350;2024-02-21T09:45:21;11.83;;;4.67;;
21337;SDS011;72379;50.880;4.350;2024-02-21T09:50:47;8.10;;;4.10;;
21337;SDS011;72379;50.880;4.350;2024-02-21T09:53:15;10.47;;;4.63;;
21337;SDS011;72379;50.880;4.350;2024-02-21T09:55:42;8.60;;;4.20;;
21337;SDS011;72379;50.880;4.350;2024-02-21T09:58:08;12.40;;;4.87;;
21337;SDS011;72379;50.880;4.350;2024-02-21T10:00:35;8.47;;;4.23;;
21337;SDS011;72379;50.880;4.350;2024-02-21T10:03:02;9.37;;;5.00;;
21337;SDS011;72379;50.880;4.350;2024-02-21T10:05:34;11.83;;;4.53;;
21337;SDS011;72379;50.880;4.350;2024-02-21T10:08:00;9.33;;;3.80;;
21337;SDS011;72379;50.880;4.350;2024-02-21T10:10:26;11.93;;;4.70;;
21337;SDS011;72379;50.880;4.350;2024-02-21T10:12:54;8.17;;;3.50;;
21337;SDS011;72379;50.880;4.350;2024-02-21T10:15:21;11.97;;;3.77;;
21337;SDS011;72379;50.880;4.350;2024-02-21T10:17:49;16.87;;;4.63;;
21337;SDS011;72379;50.880;4.350;2024-02-21T10:20:24;11.00;;;3.90;;
21337;SDS011;72379;50.880;4.350;2024-02-21T10:22:59;14.63;;;4.07;;
21337;SDS011;72379;50.880;4.350;2024-02-21T10:25:33;9.77;;;3.93;;
21337;SDS011;72379;50.880;4.350;2024-02-21T10:27:59;13.57;;;4.30;;
21337;SDS011;72379;50.880;4.350;2024-02-21T10:30:25;12.03;;;4.37;;
21337;SDS011;72379;50.880;4.350;2024-02-21T10:35:30;12.83;;;4.23;;
21337;SDS011;72379;50.880;4.350;2024-02-21T10:37:57;12.80;;;4.27;;
21337;SDS011;72379;50.880;4.350;2024-02-21T10:40:27;12.83;;;4.73;;
21337;SDS011;72379;50.880;4.350;2024-02-21T10:43:01;11.83;;;4.67;;
21337;SDS011;72379;50.880;4.350;2024-02-21T10:45:29;18.93;;;5.17;;
21337;SDS011;72379;50.880;4.350;2024-02-21T10:48:12;8.53;;;4.60;;
21337;SDS011;72379;50.880;4.350;2024-02-21T10:58:50;11.27;;;4.53;;
21337;SDS011;72379;50.880;4.350;2024-02-21T11:01:17;12.53;;;3.87;;
21337;SDS011;72379;50.880;4.350;2024-02-21T11:03:44;12.47;;;4.50;;
21337;SDS011;72379;50.880;4.350;2024-02-21T11:06:12;7.17;;;3.70;;
21337;SDS011;72379;50.880;4.350;2024-02-21T11:08:38;11.27;;;4.50;;
21337;SDS011;72379;50.880;4.350;2024-02-21T11:11:05;10.57;;;4.10;;
21337;SDS011;72379;50.880;4.350;2024-02-21T11:13:40;8.37;;;3.63;;
21337;SDS011;72379;50.880;4.350;2024-02-21T11:16:09;11.07;;;4.03;;
21337;SDS011;72379;50.880;4.350;2024-02-21T11:18:39;15.67;;;4.00;;
21337;SDS011;72379;50.880;4.350;2024-02-21T11:21:05;5.73;;;3.33;;
21337;SDS011;72379;50.880;4.350;2024-02-21T11:23:31;8.53;;;3.53;;
21337;SDS011;72379;50.880;4.350;2024-02-21T11:26:04;13.30;;;4.10;;
21337;SDS011;72379;50.880;4.350;2024-02-21T11:28:44;11.83;;;4.23;;
21337;SDS011;72379;50.880;4.350;2024-02-21T11:31:13;11.57;;;5.03;;
21337;SDS011;72379;50.880;4.350;2024-02-21T11:33:42;10.83;;;4.17;;
21337;SDS011;72379;50.880;4.350;2024-02-21T11:36:21;10.33;;;4.03;;
21337;SDS011;72379;50.880;4.350;2024-02-21T11:38:51;12.73;;;4.27;;
21337;SDS011;72379;50.880;4.350;2024-02-21T11:41:18;12.23;;;4.47;;
21337;SDS011;72379;50.880;4.350;2024-02-21T11:43:46;8.17;;;3.93;;
21337;SDS011;72379;50.880;4.350;2024-02-21T11:46:13;10.20;;;4.67;;
21337;SDS011;72379;50.880;4.350;2024-02-21T11:48:40;11.60;;;3.97;;
21337;SDS011;72379;50.880;4.350;2024-02-21T11:51:09;14.40;;;4.07;;
21337;SDS011;72379;50.880;4.350;2024-02-21T11:53:36;13.37;;;4.60;;
21337;SDS011;72379;50.880;4.350;2024-02-21T11:56:02;7.37;;;3.80;;
21337;SDS011;72379;50.880;4.350;2024-02-21T11:58:28;11.70;;;4.13;;
21337;SDS011;72379;50.880;4.350;2024-02-21T12:00:55;8.40;;;3.67;;
21337;SDS011;72379;50.880;4.350;2024-02-21T12:03:21;14.80;;;4.90;;
21337;SDS011;72379;50.880;4.350;2024-02-21T12:05:48;15.27;;;4.67;;
21337;SDS011;72379;50.880;4.350;2024-02-21T12:08:14;12.23;;;4.63;;
21337;SDS011;72379;50.880;4.350;2024-02-21T12:10:41;12.00;;;4.90;;
21337;SDS011;72379;50.880;4.350;2024-02-21T12:13:09;8.40;;;4.40;;
21337;SDS011;72379;50.880;4.350;2024-02-21T12:15:35;12.70;;;4.60;;
21337;SDS011;72379;50.880;4.350;2024-02-21T12:18:01;11.93;;;5.20;;
21337;SDS011;72379;50.880;4.350;2024-02-21T12:20:27;12.53;;;5.00;;
21337;SDS011;72379;50.880;4.350;2024-02-21T12:22:53;12.33;;;5.07;;
21337;SDS011;72379;50.880;4.350;2024-02-21T12:25:21;10.80;;;4.93;;
21337;SDS011;72379;50.880;4.350;2024-02-21T12:27:48;10.17;;;4.90;;
21337;SDS011;72379;50.880;4.350;2024-02-21T12:30:14;8.17;;;4.13;;
21337;SDS011;72379;50.880;4.350;2024-02-21T12:32:41;15.33;;;4.80;;
21337;SDS011;72379;50.880;4.350;2024-02-21T12:35:06;7.50;;;4.67;;
21337;SDS011;72379;50.880;4.350;2024-02-21T12:37:32;10.57;;;4.60;;
21337;SDS011;72379;50.880;4.350;2024-02-21T12:39:58;14.47;;;4.83;;
21337;SDS011;72379;50.880;4.350;2024-02-21T12:42:25;12.43;;;5.20;;
21337;SDS011;72379;50.880;4.350;2024-02-21T12:44:51;14.77;;;5.43;;
21337;SDS011;72379;50.880;4.350;2024-02-21T12:47:18;12.10;;;4.73;;
21337;SDS011;72379;50.880;4.350;2024-02-21T12:49:45;8.83;;;4.30;;
21337;SDS011;72379;50.880;4.350;2024-02-21T12:52:11;10.87;;;4.00;;
21337;SDS011;72379;50.880;4.350;2024-02-21T12:54:38;10.23;;;5.53;;
21337;SDS011;72379;50.880;4.350;2024-02-21T12:57:04;11.83;;;5.10;;
21337;SDS011;72379;50.880;4.350;2024-02-21T12:59:30;10.23;;;5.17;;
21337;SDS011;72379;50.880;4.350;2024-02-21T13:01:56;8.47;;;3.97;;
21337;SDS011;72379;50.880;4.350;2024-02-21T13:04:22;10.57;;;4.60;;
21337;SDS011;72379;50.880;4.350;2024-02-21T13:06:48;11.37;;;5.27;;
21337;SDS011;72379;50.880;4.350;2024-02-21T13:09:14;8.93;;;4.50;;
21337;SDS011;72379;50.880;4.350;2024-02-21T13:11:40;11.97;;;5.60;;
21337;SDS011;72379;50.880;4.350;2024-02-21T13:14:06;11.13;;;5.13;;
21337;SDS011;72379;50.880;4.350;2024-02-21T13:16:32;15.40;;;6.10;;
21337;SDS011;72379;50.880;4.350;2024-02-21T13:19:07;15.50;;;5.63;;
21337;SDS011;72379;50.880;4.350;2024-02-21T13:21:34;14.63;;;5.20;;
21337;SDS011;72379;50.880;4.350;2024-02-21T13:24:00;13.27;;;4.57;;
21337;SDS011;72379;50.880;4.350;2024-02-21T13:26:26;12.23;;;5.37;;
21337;SDS011;72379;50.880;4.350;2024-02-21T13:28:52;14.40;;;5.43;;
21337;SDS011;72379;50.880;4.350;2024-02-21T13:31:18;15.53;;;5.70;;
21337;SDS011;72379;50.880;4.350;2024-02-21T13:33:44;12.97;;;5.33;;
21337;SDS011;72379;50.880;4.350;2024-02-21T13:36:10;10.80;;;4.10;;
21337;SDS011;72379;50.880;4.350;2024-02-21T13:38:36;8.77;;;4.97;;
21337;SDS011;72379;50.880;4.350;2024-02-21T13:41:03;11.47;;;4.93;;
21337;SDS011;72379;50.880;4.350;2024-02-21T13:43:33;16.37;;;5.50;;
21337;SDS011;72379;50.880;4.350;2024-02-21T13:46:00;14.80;;;6.27;;
21337;SDS011;72379;50.880;4.350;2024-02-21T13:48:27;11.10;;;5.07;;
21337;SDS011;72379;50.880;4.350;2024-02-21T13:50:54;12.00;;;5.77;;
21337;SDS011;72379;50.880;4.350;2024-02-21T13:53:20;10.00;;;4.63;;
21337;SDS011;72379;50.880;4.350;2024-02-21T13:55:47;9.53;;;5.40;;
21337;SDS011;72379;50.880;4.350;2024-02-21T13:58:13;16.93;;;5.90;;
21337;SDS011;72379;50.880;4.350;2024-02-21T14:00:40;12.87;;;5.87;;
21337;SDS011;72379;50.880;4.350;2024-02-21T14:03:06;19.10;;;6.00;;
21337;SDS011;72379;50.880;4.350;2024-02-21T14:05:32;13.03;;;5.97;;
21337;SDS011;72379;50.880;4.350;2024-02-21T14:07:58;13.03;;;6.10;;
21337;SDS011;72379;50.880;4.350;2024-02-21T14:10:25;12.20;;;6.97;;
21337;SDS011;72379;50.880;4.350;2024-02-21T14:12:51;15.90;;;7.63;;
21337;SDS011;72379;50.880;4.350;2024-02-21T14:15:17;12.83;;;6.47;;
21337;SDS011;72379;50.880;4.350;2024-02-21T14:17:43;6.70;;;3.83;;
21337;SDS011;72379;50.880;4.350;2024-02-21T14:20:09;10.93;;;5.37;;
21337;SDS011;72379;50.880;4.350;2024-02-21T14:22:36;13.17;;;5.87;;
21337;SDS011;72379;50.880;4.350;2024-02-21T14:25:03;13.47;;;6.07;;
21337;SDS011;72379;50.880;4.350;2024-02-21T14:27:32;16.03;;;5.90;;
21337;SDS011;72379;50.880;4.350;2024-02-21T14:29:57;12.47;;;5.80;;
21337;SDS011;72379;50.880;4.350;2024-02-21T14:32:23;14.70;;;6.07;;
21337;SDS011;72379;50.880;4.350;2024-02-21T14:34:49;12.33;;;5.70;;
21337;SDS011;72379;50.880;4.350;2024-02-21T14:37:16;11.17;;;5.67;;
21337;SDS011;72379;50.880;4.350;2024-02-21T14:39:42;11.30;;;5.90;;
21337;SDS011;72379;50.880;4.350;2024-02-21T14:42:08;11.13;;;5.83;;
21337;SDS011;72379;50.880;4.350;2024-02-21T14:44:37;12.60;;;5.60;;